createdAt,value
2023-03-26T00:01:46.663Z,7.25
2023-03-26T00:04:14.512Z,7.26
2023-03-26T00:06:42.316Z,7.28
2023-03-26T00:09:13.173Z,7.30
2023-03-26T00:11:42.053Z,7.32
2023-03-26T00:14:17.158Z,7.35
2023-03-26T00:16:45.374Z,7.38
2023-03-26T00:19:13.714Z,7.39
2023-03-26T00:21:41.682Z,7.40
2023-03-26T00:24:14.809Z,7.40
2023-03-26T00:26:43.484Z,7.41
2023-03-26T00:29:13.442Z,7.42
2023-03-26T00:31:41.086Z,7.44
2023-03-26T00:34:10.383Z,7.46
2023-03-26T00:36:37.939Z,7.48
2023-03-26T00:39:05.894Z,7.48
2023-03-26T00:41:37.048Z,7.49
2023-03-26T00:44:04.867Z,7.48
2023-03-26T00:46:32.466Z,7.47
2023-03-26T00:49:01.624Z,7.47
2023-03-26T00:51:29.784Z,7.48
2023-03-26T00:53:58.241Z,7.48
2023-03-26T00:56:26.309Z,7.47
2023-03-26T00:58:53.786Z,7.47
2023-03-26T01:01:27.871Z,7.47
2023-03-26T01:04:07.356Z,7.47
2023-03-26T01:06:41.740Z,7.45
2023-03-26T01:09:19.055Z,7.44
2023-03-26T01:11:48.752Z,7.43
2023-03-26T01:14:20.100Z,7.40
2023-03-26T01:16:56.355Z,7.40
2023-03-26T01:19:29.105Z,7.38
2023-03-26T01:21:59.073Z,7.37
2023-03-26T01:24:27.308Z,7.38
2023-03-26T01:27:09.546Z,7.37
2023-03-26T01:29:37.438Z,7.35
2023-03-26T01:32:33.318Z,7.34
2023-03-26T01:35:17.461Z,7.32
2023-03-26T01:38:16.920Z,7.31
2023-03-26T01:40:55.766Z,7.30
2023-03-26T01:43:30.976Z,7.29
2023-03-26T01:46:02.555Z,7.29
2023-03-26T01:48:36.824Z,7.29
2023-03-26T01:51:05.750Z,7.28
2023-03-26T01:53:37.225Z,7.26
2023-03-26T01:56:13.689Z,7.25
2023-03-26T01:58:49.611Z,7.24
2023-03-26T02:01:27.033Z,7.24
2023-03-26T02:04:04.190Z,7.22
2023-03-26T02:06:46.085Z,7.19
2023-03-26T02:09:24.089Z,7.16
2023-03-26T02:11:51.853Z,7.15
2023-03-26T02:14:19.509Z,7.13
2023-03-26T02:16:47.943Z,7.10
2023-03-26T02:19:15.866Z,7.09
2023-03-26T02:21:43.614Z,7.07
2023-03-26T02:24:11.475Z,7.07
2023-03-26T02:26:39.097Z,7.08
2023-03-26T02:29:06.617Z,7.09
2023-03-26T02:31:35.773Z,7.10
2023-03-26T02:34:03.557Z,7.11
2023-03-26T02:36:31.252Z,7.13
2023-03-26T02:39:00.133Z,7.13
2023-03-26T02:41:27.649Z,7.12
2023-03-26T02:43:55.309Z,7.12
2023-03-26T02:46:22.844Z,7.11
2023-03-26T02:48:51.058Z,7.11
2023-03-26T02:51:19.541Z,7.10
2023-03-26T02:53:47.526Z,7.09
2023-03-26T02:56:15.349Z,7.09
2023-03-26T02:58:42.846Z,7.10
2023-03-26T03:01:10.416Z,7.10
2023-03-26T03:03:37.941Z,7.08
2023-03-26T03:06:05.655Z,7.09
2023-03-26T03:08:33.934Z,7.07
2023-03-26T03:11:10.234Z,7.07
2023-03-26T03:13:37.816Z,7.07
2023-03-26T03:16:05.909Z,7.07
2023-03-26T03:18:35.591Z,7.07
2023-03-26T03:21:04.177Z,7.06
2023-03-26T03:23:31.762Z,7.05
2023-03-26T03:26:00.728Z,7.05
2023-03-26T03:28:28.204Z,7.05
2023-03-26T03:30:57.401Z,7.06
2023-03-26T03:33:25.182Z,7.07
2023-03-26T03:35:52.944Z,7.07
2023-03-26T03:38:20.661Z,7.08
2023-03-26T03:40:48.518Z,7.08
2023-03-26T03:43:16.015Z,7.09
2023-03-26T03:45:43.558Z,7.08
2023-03-26T03:48:11.101Z,7.08
2023-03-26T03:50:38.589Z,7.08
2023-03-26T03:53:06.297Z,7.08
2023-03-26T03:55:33.802Z,7.07
2023-03-26T03:58:01.364Z,7.07
2023-03-26T04:00:30.596Z,7.07
2023-03-26T04:02:58.692Z,7.04
2023-03-26T04:05:26.330Z,7.03
2023-03-26T04:07:53.788Z,7.03
2023-03-26T04:10:21.298Z,7.04
2023-03-26T04:12:49.296Z,7.05
2023-03-26T04:15:17.055Z,7.07
2023-03-26T04:17:45.250Z,7.08
2023-03-26T04:20:15.847Z,7.10
2023-03-26T04:22:43.852Z,7.11
2023-03-26T04:25:12.973Z,7.13
2023-03-26T04:27:43.198Z,7.14
2023-03-26T04:30:20.362Z,7.14
2023-03-26T04:32:48.971Z,7.15
2023-03-26T04:35:18.204Z,7.15
2023-03-26T04:37:46.393Z,7.14
2023-03-26T04:40:20.653Z,7.12
2023-03-26T04:42:48.691Z,7.10
2023-03-26T04:45:22.293Z,7.07
2023-03-26T04:47:50.912Z,7.06
2023-03-26T04:50:18.652Z,7.03
2023-03-26T04:52:46.426Z,7.00
2023-03-26T04:55:25.715Z,6.97
2023-03-26T04:57:56.521Z,6.94
2023-03-26T05:00:24.663Z,6.92
2023-03-26T05:02:55.879Z,6.91
2023-03-26T05:05:25.298Z,6.90
2023-03-26T05:07:52.942Z,6.89
2023-03-26T05:10:22.735Z,6.91
2023-03-26T05:12:50.633Z,6.92
2023-03-26T05:15:18.225Z,6.93
2023-03-26T05:17:46.308Z,6.95
2023-03-26T05:20:21.374Z,6.96
2023-03-26T05:22:50.442Z,6.96
2023-03-26T05:25:18.466Z,6.97
2023-03-26T05:27:46.209Z,6.97
2023-03-26T05:30:16.564Z,6.97
2023-03-26T05:32:44.273Z,6.97
2023-03-26T05:35:12.941Z,7.00
2023-03-26T05:37:40.422Z,7.00
2023-03-26T05:40:14.619Z,7.01
2023-03-26T05:42:42.629Z,6.99
2023-03-26T05:45:12.466Z,6.99
2023-03-26T05:47:40.561Z,7.00
2023-03-26T05:50:09.310Z,6.99
2023-03-26T05:52:37.046Z,6.98
2023-03-26T05:55:04.762Z,6.98
2023-03-26T05:57:32.687Z,6.99
2023-03-26T06:00:00.244Z,7.01
2023-03-26T06:02:29.417Z,7.04
2023-03-26T06:04:57.030Z,7.09
2023-03-26T06:07:26.883Z,7.14
2023-03-26T06:09:54.638Z,7.17
2023-03-26T06:12:22.104Z,7.20
2023-03-26T06:14:51.149Z,7.22
2023-03-26T06:17:19.985Z,7.25
2023-03-26T06:19:47.854Z,7.30
2023-03-26T06:22:15.472Z,7.34
2023-03-26T06:24:43.175Z,7.35
2023-03-26T06:27:10.789Z,7.37
2023-03-26T06:29:38.328Z,7.36
2023-03-26T06:32:18.397Z,7.34
2023-03-26T06:34:47.395Z,7.32
2023-03-26T06:37:16.365Z,7.35
2023-03-26T06:39:44.247Z,7.37
2023-03-26T06:42:11.767Z,7.39
2023-03-26T06:44:39.311Z,7.38
2023-03-26T06:47:06.845Z,7.37
2023-03-26T06:49:34.472Z,7.38
2023-03-26T06:52:03.598Z,7.38
2023-03-26T06:54:31.390Z,7.39
2023-03-26T06:56:59.745Z,7.41
2023-03-26T06:59:27.478Z,7.41
2023-03-26T07:01:55.158Z,7.45
2023-03-26T07:04:22.676Z,7.51
2023-03-26T07:06:50.278Z,7.56
2023-03-26T07:09:17.840Z,7.60
2023-03-26T07:11:45.323Z,7.61
2023-03-26T07:14:13.013Z,7.59
2023-03-26T07:16:40.760Z,7.57
2023-03-26T07:19:08.420Z,7.57
2023-03-26T07:21:36.111Z,7.58
2023-03-26T07:24:03.940Z,7.59
2023-03-26T07:26:46.086Z,7.59
2023-03-26T07:29:24.893Z,7.59
2023-03-26T07:32:03.850Z,7.60
2023-03-26T07:34:41.129Z,7.60
2023-03-26T07:37:33.203Z,7.59
2023-03-26T07:40:14.895Z,7.58
2023-03-26T07:43:14.487Z,7.54
2023-03-26T07:45:43.862Z,7.42
2023-03-26T07:48:27.157Z,7.36
2023-03-26T07:50:56.701Z,7.33
2023-03-26T07:53:25.016Z,7.35
2023-03-26T07:56:12.258Z,7.39
2023-03-26T07:59:12.780Z,7.46
2023-03-26T08:01:53.955Z,7.60
2023-03-26T08:04:40.509Z,7.76
2023-03-26T08:07:15.252Z,7.88
2023-03-26T08:09:48.400Z,7.98
2023-03-26T08:12:49.206Z,8.03
2023-03-26T08:15:43.888Z,8.12
2023-03-26T08:18:31.134Z,8.23
2023-03-26T08:21:28.127Z,8.27
2023-03-26T08:24:04.719Z,8.22
2023-03-26T08:26:38.497Z,8.14
2023-03-26T08:29:28.690Z,8.07
2023-03-26T08:32:01.657Z,7.92
2023-03-26T08:34:29.687Z,7.73
2023-03-26T08:36:57.190Z,7.59
2023-03-26T08:39:24.863Z,7.45
2023-03-26T08:42:09.391Z,7.29
2023-03-26T08:44:52.982Z,7.12
2023-03-26T08:47:51.621Z,6.98
2023-03-26T08:50:51.247Z,6.91
2023-03-26T08:53:21.634Z,6.93
2023-03-26T08:56:00.230Z,6.97
2023-03-26T08:58:46.717Z,7.02
2023-03-26T09:01:20.382Z,7.10
2023-03-26T09:04:19.922Z,7.18
2023-03-26T09:07:14.876Z,7.34
2023-03-26T09:10:03.000Z,7.54
2023-03-26T09:13:10.846Z,7.77
2023-03-26T09:16:00.443Z,8.00
2023-03-26T09:18:41.504Z,8.08
2023-03-26T09:21:24.901Z,8.10
2023-03-26T09:24:27.664Z,8.20
2023-03-26T09:27:23.408Z,8.38
2023-03-26T09:30:09.695Z,8.56
2023-03-26T09:32:59.325Z,8.84
2023-03-26T09:35:58.889Z,8.99
2023-03-26T09:38:35.766Z,8.96
2023-03-26T09:41:22.235Z,8.88
2023-03-26T09:44:21.924Z,8.81
2023-03-26T09:46:53.370Z,8.77
2023-03-26T09:49:35.905Z,8.78
2023-03-26T09:52:22.419Z,8.78
2023-03-26T09:55:02.637Z,8.76
2023-03-26T09:57:53.894Z,8.75
2023-03-26T10:00:35.386Z,8.82
2023-03-26T10:03:22.130Z,9.01
2023-03-26T10:06:11.903Z,9.12
2023-03-26T10:08:44.415Z,9.18
2023-03-26T10:11:54.353Z,9.20
2023-03-26T10:14:25.957Z,9.31
2023-03-26T10:17:10.508Z,9.31
2023-03-26T10:19:53.648Z,9.29
2023-03-26T10:22:38.508Z,9.27
2023-03-26T10:25:24.159Z,9.30
2023-03-26T10:28:22.624Z,9.53
2023-03-26T10:31:22.113Z,9.80
2023-03-26T10:34:28.572Z,10.01
2023-03-26T10:37:18.454Z,10.07
2023-03-26T10:40:18.013Z,10.14
2023-03-26T10:43:01.663Z,10.10
2023-03-26T10:45:49.388Z,10.01
2023-03-26T10:48:23.863Z,9.98
2023-03-26T10:51:23.334Z,9.99
2023-03-26T10:53:58.463Z,10.06
2023-03-26T10:56:36.418Z,10.11
2023-03-26T10:59:12.047Z,10.12
2023-03-26T11:01:56.541Z,10.23
2023-03-26T11:04:50.796Z,10.23
2023-03-26T11:07:32.584Z,10.20
2023-03-26T11:10:08.969Z,10.28
2023-03-26T11:12:59.416Z,10.49
2023-03-26T11:15:38.636Z,10.67
2023-03-26T11:18:39.314Z,10.74
2023-03-26T11:21:38.835Z,10.87
2023-03-26T11:24:18.518Z,11.12
2023-03-26T11:30:17.580Z,11.65
2023-03-26T11:32:49.170Z,11.80
2023-03-26T11:34:36.611Z,11.45
2023-03-26T11:35:40.525Z,11.64
2023-03-26T11:38:23.677Z,11.52
2023-03-26T11:40:57.070Z,11.46
2023-03-26T11:43:32.793Z,11.31
2023-03-26T11:46:08.687Z,11.08
2023-03-26T11:48:46.211Z,10.89
2023-03-26T11:51:26.500Z,10.77
2023-03-26T11:53:54.695Z,10.67
2023-03-26T11:56:41.153Z,10.62
2023-03-26T11:59:49.113Z,10.67
2023-03-26T12:02:26.375Z,10.81
2023-03-26T12:05:12.329Z,11.01
2023-03-26T12:07:58.060Z,11.11
2023-03-26T12:10:42.967Z,11.04
2023-03-26T12:13:43.579Z,11.02
2023-03-26T12:16:18.749Z,10.96
2023-03-26T12:18:58.015Z,11.06
2023-03-26T12:21:25.936Z,11.26
2023-03-26T12:24:04.638Z,11.41
2023-03-26T12:26:41.688Z,11.97
2023-03-26T12:29:15.426Z,12.12
2023-03-26T12:31:49.720Z,12.06
2023-03-26T12:34:20.681Z,11.85
2023-03-26T12:36:55.585Z,11.71
2023-03-26T12:40:09.045Z,11.59
2023-03-26T12:44:47.373Z,11.53
2023-03-26T12:45:24.190Z,11.78
2023-03-26T12:47:57.876Z,11.88
2023-03-26T12:50:42.803Z,11.85
2023-03-26T12:53:20.293Z,11.81
2023-03-26T12:56:01.420Z,11.78
2023-03-26T12:58:44.996Z,12.04
2023-03-26T13:01:33.102Z,12.40
2023-03-26T13:04:07.022Z,12.51
2023-03-26T13:07:01.532Z,12.45
2023-03-26T13:09:52.838Z,12.34
2023-03-26T13:12:52.931Z,12.15
2023-03-26T13:15:36.574Z,11.98
2023-03-26T13:18:23.303Z,11.89
2023-03-26T13:21:11.718Z,12.16
2023-03-26T13:24:11.259Z,13.06
2023-03-26T13:27:01.388Z,14.33
2023-03-26T13:29:46.009Z,14.98
2023-03-26T13:32:46.734Z,14.84
2023-03-26T13:35:36.417Z,14.43
2023-03-26T13:38:08.754Z,13.79
2023-03-26T13:41:04.640Z,13.35
2023-03-26T13:43:51.202Z,12.78
2023-03-26T13:46:20.171Z,12.22
2023-03-26T13:48:56.055Z,11.75
2023-03-26T13:51:42.192Z,11.30
2023-03-26T13:54:21.852Z,10.80
2023-03-26T13:56:58.884Z,10.26
2023-03-26T13:59:40.531Z,9.80
2023-03-26T14:02:19.676Z,9.52
2023-03-26T14:04:56.689Z,9.43
2023-03-26T14:07:34.374Z,9.40
2023-03-26T14:10:08.868Z,9.41
2023-03-26T14:12:56.853Z,9.47
2023-03-26T14:15:45.013Z,9.53
2023-03-26T14:18:28.639Z,9.62
2023-03-26T14:21:12.461Z,9.92
2023-03-26T14:23:46.364Z,11.17
2023-03-26T14:26:37.403Z,12.67
2023-03-26T14:29:29.737Z,14.06
2023-03-26T14:32:16.355Z,14.38
2023-03-26T14:35:26.247Z,14.18
2023-03-26T14:38:09.922Z,14.06
2023-03-26T14:40:58.681Z,14.51
2023-03-26T14:43:58.549Z,15.41
2023-03-26T14:46:41.316Z,15.81
2023-03-26T14:49:28.430Z,15.38
2023-03-26T14:52:16.696Z,14.59
2023-03-26T14:54:48.890Z,13.84
2023-03-26T14:57:38.248Z,13.33
2023-03-26T15:00:31.889Z,12.94
2023-03-26T15:03:21.260Z,12.62
2023-03-26T15:06:24.135Z,12.34
2023-03-26T15:09:23.542Z,12.11
2023-03-26T15:12:28.462Z,11.96
2023-03-26T15:15:27.932Z,11.97
2023-03-26T15:18:06.475Z,13.42
2023-03-26T15:20:43.118Z,15.08
2023-03-26T15:23:26.892Z,16.55
2023-03-26T15:26:09.752Z,17.69
2023-03-26T15:29:09.896Z,18.75
2023-03-26T15:32:09.618Z,19.77
2023-03-26T15:34:59.306Z,20.52
2023-03-26T15:37:39.942Z,20.67
2023-03-26T15:40:23.506Z,20.01
2023-03-26T15:43:15.010Z,19.03
2023-03-26T15:45:56.074Z,18.68
2023-03-26T15:48:34.436Z,18.55
2023-03-26T15:51:17.862Z,18.73
2023-03-26T15:53:48.523Z,18.06
2023-03-26T15:56:48.883Z,17.21
2023-03-26T15:59:36.814Z,16.33
2023-03-26T16:02:50.162Z,15.54
2023-03-26T16:05:48.557Z,14.61
2023-03-26T16:08:30.934Z,13.94
2023-03-26T16:11:07.575Z,13.46
2023-03-26T16:13:39.413Z,13.16
2023-03-26T16:16:23.894Z,13.41
2023-03-26T16:19:18.512Z,13.41
2023-03-26T16:22:04.260Z,13.06
2023-03-26T16:24:39.872Z,12.75
2023-03-26T16:27:13.433Z,12.61
2023-03-26T16:30:11.838Z,13.25
2023-03-26T16:32:48.084Z,13.36
2023-03-26T16:35:16.662Z,13.02
2023-03-26T16:37:50.354Z,12.65
2023-03-26T16:40:18.031Z,12.31
2023-03-26T16:43:19.693Z,11.97
2023-03-26T16:46:03.360Z,11.55
2023-03-26T16:49:08.438Z,11.24
2023-03-26T16:51:52.384Z,10.98
2023-03-26T16:54:41.042Z,10.76
2023-03-26T16:57:28.509Z,10.54
2023-03-26T17:00:06.216Z,10.34
2023-03-26T17:02:52.599Z,10.18
2023-03-26T17:05:37.539Z,10.05
2023-03-26T17:08:11.539Z,9.95
2023-03-26T17:10:47.174Z,9.88
2023-03-26T17:13:37.535Z,9.80
2023-03-26T17:16:20.240Z,9.73
2023-03-26T17:19:04.831Z,9.67
2023-03-26T17:21:56.008Z,9.61
2023-03-26T17:24:47.797Z,9.55
2023-03-26T17:27:50.087Z,9.48
2023-03-26T17:30:30.815Z,9.35
2023-03-26T17:32:59.747Z,9.24
2023-03-26T17:35:46.111Z,9.11
2023-03-26T17:38:16.640Z,9.00
2023-03-26T17:41:00.274Z,8.90
2023-03-26T17:43:50.150Z,8.82
2023-03-26T17:46:33.632Z,8.73
2023-03-26T17:49:16.337Z,8.68
2023-03-26T17:51:51.263Z,8.61
2023-03-26T17:54:41.458Z,8.54
2023-03-26T17:57:56.699Z,8.46
2023-03-26T18:00:45.386Z,8.38
2023-03-26T18:03:21.189Z,8.30
2023-03-26T18:05:55.990Z,8.22
2023-03-26T18:08:45.783Z,8.14
2023-03-26T18:11:37.127Z,8.05
2023-03-26T18:14:24.444Z,7.99
2023-03-26T18:16:59.213Z,7.93
2023-03-26T18:19:28.351Z,7.88
2023-03-26T18:22:04.158Z,7.83
2023-03-26T18:24:36.888Z,7.75
2023-03-26T18:27:11.877Z,7.66
2023-03-26T18:29:45.788Z,7.60
2023-03-26T18:32:13.411Z,7.55
2023-03-26T18:34:49.815Z,7.49
2023-03-26T18:37:24.593Z,7.44
2023-03-26T18:40:12.755Z,7.39
2023-03-26T18:42:43.534Z,7.35
2023-03-26T18:45:34.777Z,7.32
2023-03-26T18:48:11.496Z,7.27
2023-03-26T18:50:41.585Z,7.23
2023-03-26T18:53:18.380Z,7.18
2023-03-26T18:55:47.702Z,7.13
2023-03-26T18:58:34.298Z,7.09
2023-03-26T19:01:16.993Z,7.05
2023-03-26T19:03:53.596Z,7.02
2023-03-26T19:06:23.240Z,6.98
2023-03-26T19:08:52.247Z,6.95
2023-03-26T19:11:19.961Z,6.91
2023-03-26T19:13:59.721Z,6.89
2023-03-26T19:16:33.935Z,6.86
2023-03-26T19:19:05.350Z,6.83
2023-03-26T19:21:36.382Z,6.80
2023-03-26T19:24:05.546Z,6.77
2023-03-26T19:26:36.498Z,6.73
2023-03-26T19:29:05.496Z,6.70
2023-03-26T19:31:34.560Z,6.67
2023-03-26T19:34:15.536Z,6.61
2023-03-26T19:36:58.233Z,6.55
2023-03-26T19:39:42.685Z,6.50
2023-03-26T19:42:24.060Z,6.42
2023-03-26T19:44:52.494Z,6.35
2023-03-26T19:47:29.271Z,6.27
2023-03-26T19:50:25.909Z,6.18
2023-03-26T19:53:24.335Z,6.09
2023-03-26T19:55:53.426Z,6.01
2023-03-26T19:58:21.376Z,5.95
2023-03-26T20:00:48.958Z,5.90
2023-03-26T20:03:23.074Z,5.85
2023-03-26T20:05:51.752Z,5.81
2023-03-26T20:08:31.926Z,5.76
2023-03-26T20:10:59.872Z,5.73
2023-03-26T20:13:31.791Z,5.72
2023-03-26T20:16:15.670Z,5.69
2023-03-26T20:18:43.333Z,5.66
2023-03-26T20:21:12.681Z,5.62
2023-03-26T20:23:41.042Z,5.59
2023-03-26T20:26:14.669Z,5.57
2023-03-26T20:28:48.154Z,5.54
2023-03-26T20:31:22.634Z,5.50
2023-03-26T20:33:57.619Z,5.53
2023-03-26T20:36:33.256Z,5.57
2023-03-26T20:39:06.030Z,5.63
2023-03-26T20:41:40.649Z,5.68
2023-03-26T20:44:17.629Z,5.74
2023-03-26T20:46:48.175Z,5.81
2023-03-26T20:49:17.642Z,5.89
2023-03-26T20:51:46.926Z,5.97
2023-03-26T20:54:23.419Z,6.05
2023-03-26T20:56:53.500Z,6.14
2023-03-26T20:59:26.361Z,6.22
2023-03-26T21:01:57.344Z,6.30
2023-03-26T21:04:26.411Z,6.36
2023-03-26T21:07:00.336Z,6.42
2023-03-26T21:09:35.544Z,6.49
2023-03-26T21:12:09.444Z,6.55
2023-03-26T21:14:43.988Z,6.59
2023-03-26T21:17:18.305Z,6.64
2023-03-26T21:19:47.575Z,6.67
2023-03-26T21:22:34.127Z,6.71
2023-03-26T21:25:24.360Z,6.72
2023-03-26T21:28:01.219Z,6.72
2023-03-26T21:30:29.060Z,6.70
2023-03-26T21:32:56.947Z,6.67
2023-03-26T21:35:25.237Z,6.68
2023-03-26T21:37:55.378Z,6.67
2023-03-26T21:40:23.211Z,6.67
2023-03-26T21:42:53.489Z,6.68
2023-03-26T21:45:22.087Z,6.69
2023-03-26T21:47:50.126Z,6.69
2023-03-26T21:50:21.668Z,6.68
2023-03-26T21:52:52.330Z,6.66
2023-03-26T21:55:22.338Z,6.65
2023-03-26T21:57:50.592Z,6.62
2023-03-26T22:00:18.726Z,6.60
2023-03-26T22:02:46.316Z,6.57
2023-03-26T22:05:20.962Z,6.53
2023-03-26T22:08:06.959Z,6.47
2023-03-26T22:10:34.728Z,6.43
2023-03-26T22:13:02.414Z,6.38
2023-03-26T22:15:31.289Z,6.32
2023-03-26T22:18:03.770Z,6.25
2023-03-26T22:20:31.738Z,6.16
2023-03-26T22:22:59.666Z,6.08
2023-03-26T22:25:28.637Z,5.98
2023-03-26T22:27:57.356Z,5.90
2023-03-26T22:30:25.702Z,5.82
2023-03-26T22:32:53.780Z,5.75
2023-03-26T22:35:21.640Z,5.70
2023-03-26T22:37:49.185Z,5.67
2023-03-26T22:40:17.927Z,5.66
2023-03-26T22:42:45.398Z,5.66
2023-03-26T22:45:13.134Z,5.66
2023-03-26T22:47:40.777Z,5.65
2023-03-26T22:50:09.756Z,5.66
2023-03-26T22:52:39.839Z,5.66
2023-03-26T22:55:08.813Z,5.65
2023-03-26T22:57:36.435Z,5.63
2023-03-26T23:00:28.158Z,5.59
2023-03-26T23:03:00.001Z,5.54
2023-03-26T23:05:28.550Z,5.50
2023-03-26T23:07:58.213Z,5.45
2023-03-26T23:10:25.847Z,5.40
2023-03-26T23:12:53.378Z,5.36
2023-03-26T23:15:22.128Z,5.30
2023-03-26T23:17:54.859Z,5.25
2023-03-26T23:20:23.074Z,5.18
2023-03-26T23:22:51.008Z,5.13
2023-03-26T23:25:19.967Z,5.05
2023-03-26T23:27:48.430Z,4.99
2023-03-26T23:30:16.671Z,4.93
2023-03-26T23:32:44.253Z,4.86
2023-03-26T23:35:11.813Z,4.79
2023-03-26T23:37:42.525Z,4.74
2023-03-26T23:40:12.440Z,4.68
2023-03-26T23:42:40.030Z,4.63
2023-03-26T23:45:09.555Z,4.58
2023-03-26T23:47:42.268Z,4.53
2023-03-26T23:50:11.056Z,4.49
2023-03-26T23:52:38.622Z,4.44
2023-03-26T23:55:06.885Z,4.39
2023-03-26T23:57:34.440Z,4.33
